createdAt,value
2022-08-04T00:01:20.169Z,51.89
2022-08-04T00:04:03.572Z,52.00
2022-08-04T00:06:57.925Z,51.99
2022-08-04T00:09:32.997Z,52.22
2022-08-04T00:12:04.714Z,52.16
2022-08-04T00:14:37.455Z,52.07
2022-08-04T00:17:10.187Z,52.21
2022-08-04T00:19:46.057Z,52.30
2022-08-04T00:22:21.597Z,52.15
2022-08-04T00:24:52.105Z,52.31
2022-08-04T00:27:25.255Z,52.31
2022-08-04T00:29:55.649Z,52.44
2022-08-04T00:32:34.545Z,52.39
2022-08-04T00:35:05.827Z,52.53
2022-08-04T00:37:39.186Z,52.63
2022-08-04T00:40:44.479Z,52.59
2022-08-04T00:43:30.535Z,52.71
2022-08-04T00:46:19.299Z,52.72
2022-08-04T00:49:09.257Z,52.74
2022-08-04T00:51:42.546Z,52.61
2022-08-04T00:54:37.353Z,52.82
2022-08-04T00:57:34.408Z,52.74
2022-08-04T01:00:12.301Z,52.83
2022-08-04T01:03:00.944Z,52.96
2022-08-04T01:05:50.040Z,52.85
2022-08-04T01:08:41.535Z,53.04
2022-08-04T01:11:29.142Z,53.26
2022-08-04T01:14:14.808Z,53.20
2022-08-04T01:16:55.194Z,53.29
2022-08-04T01:19:44.149Z,53.28
2022-08-04T01:22:17.415Z,53.30
2022-08-04T01:24:50.862Z,53.39
2022-08-04T01:27:59.155Z,53.44
2022-08-04T01:30:35.266Z,53.54
2022-08-04T01:33:10.757Z,53.66
2022-08-04T01:35:50.311Z,53.69
2022-08-04T01:38:26.461Z,53.65
2022-08-04T01:41:05.239Z,53.81
2022-08-04T01:43:38.766Z,53.82
2022-08-04T01:46:12.485Z,53.82
2022-08-04T01:48:46.389Z,53.86
2022-08-04T01:51:16.804Z,54.00
2022-08-04T01:53:47.057Z,54.00
2022-08-04T01:56:17.995Z,53.91
2022-08-04T01:58:48.620Z,54.09
2022-08-04T02:01:18.907Z,54.02
2022-08-04T02:04:21.128Z,54.06
2022-08-04T02:06:52.109Z,54.21
2022-08-04T02:09:54.651Z,54.21
2022-08-04T02:13:01.106Z,54.33
2022-08-04T02:15:41.491Z,54.46
2022-08-04T02:18:25.530Z,54.48
2022-08-04T02:21:06.049Z,54.55
2022-08-04T02:23:39.123Z,54.60
2022-08-04T02:26:22.255Z,54.65
2022-08-04T02:28:56.215Z,54.65
2022-08-04T02:31:46.086Z,54.79
2022-08-04T02:34:38.227Z,54.82
2022-08-04T02:37:11.899Z,54.98
2022-08-04T02:39:48.693Z,54.99
2022-08-04T02:42:21.116Z,55.05
2022-08-04T02:44:53.438Z,55.02
2022-08-04T02:48:23.687Z,55.17
2022-08-04T02:50:29.042Z,55.31
2022-08-04T02:53:04.864Z,55.36
2022-08-04T02:55:50.878Z,55.33
2022-08-04T02:58:33.577Z,55.46
2022-08-04T03:01:05.153Z,55.44
2022-08-04T03:03:47.515Z,55.54
2022-08-04T03:06:23.777Z,55.73
2022-08-04T03:09:23.615Z,55.67
2022-08-04T03:12:31.697Z,55.69
2022-08-04T03:15:23.489Z,55.76
2022-08-04T03:18:19.924Z,55.82
2022-08-04T03:21:17.806Z,55.84
2022-08-04T03:23:57.340Z,55.94
2022-08-04T03:26:37.907Z,55.94
2022-08-04T03:29:55.706Z,56.01
2022-08-04T03:32:57.776Z,56.06
2022-08-04T03:35:27.988Z,56.07
2022-08-04T03:38:27.615Z,56.14
2022-08-04T03:41:03.903Z,56.23
2022-08-04T03:43:57.691Z,56.26
2022-08-04T03:46:53.013Z,56.32
2022-08-04T03:49:41.986Z,56.46
2022-08-04T03:52:53.754Z,56.51
2022-08-04T03:55:37.496Z,56.57
2022-08-04T03:58:30.491Z,56.64
2022-08-04T04:02:02.150Z,56.62
2022-08-04T04:04:39.604Z,56.71
2022-08-04T04:08:01.854Z,56.70
2022-08-04T04:10:58.706Z,56.79
2022-08-04T04:14:06.244Z,56.90
2022-08-04T04:17:00.773Z,57.04
2022-08-04T04:20:03.226Z,57.09
2022-08-04T04:22:44.270Z,57.21
2022-08-04T04:25:41.306Z,57.35
2022-08-04T04:28:44.555Z,57.28
2022-08-04T04:31:24.889Z,57.35
2022-08-04T04:34:15.380Z,57.41
2022-08-04T04:37:39.639Z,57.43
2022-08-04T04:40:41.237Z,57.52
2022-08-04T04:43:52.776Z,57.76
2022-08-04T04:46:36.713Z,57.85
2022-08-04T04:49:44.276Z,57.81
2022-08-04T04:52:54.384Z,57.94
2022-08-04T04:55:45.132Z,57.94
2022-08-04T04:58:53.435Z,58.06
2022-08-04T05:02:08.813Z,58.14
2022-08-04T05:05:19.587Z,58.31
2022-08-04T05:08:43.063Z,58.43
2022-08-04T05:11:50.847Z,58.46
2022-08-04T05:14:41.518Z,58.55
2022-08-04T05:17:34.853Z,58.64
2022-08-04T05:20:23.736Z,58.65
2022-08-04T05:23:13.845Z,58.74
2022-08-04T05:26:09.328Z,58.77
2022-08-04T05:28:50.860Z,58.94
2022-08-04T05:32:00.913Z,58.95
2022-08-04T05:34:41.986Z,59.10
2022-08-04T05:37:23.860Z,59.10
2022-08-04T05:40:18.745Z,59.32
2022-08-04T05:42:50.627Z,59.20
2022-08-04T05:45:22.413Z,59.34
2022-08-04T05:47:55.572Z,59.38
2022-08-04T05:50:27.515Z,59.46
2022-08-04T05:53:08.085Z,59.64
2022-08-04T05:55:58.117Z,59.63
2022-08-04T05:58:35.101Z,59.76
2022-08-04T06:01:07.890Z,59.76
2022-08-04T06:03:40.606Z,59.85
2022-08-04T06:06:13.178Z,59.87
2022-08-04T06:08:43.547Z,59.96
2022-08-04T06:11:16.181Z,59.98
2022-08-04T06:13:52.825Z,60.06
2022-08-04T06:16:31.085Z,59.97
2022-08-04T06:20:04.056Z,60.13
2022-08-04T06:22:01.638Z,60.29
2022-08-04T06:24:38.086Z,60.34
2022-08-04T06:27:10.569Z,60.42
2022-08-04T06:29:51.476Z,60.58
2022-08-04T06:32:33.640Z,60.61
2022-08-04T06:35:08.348Z,60.55
2022-08-04T06:37:43.588Z,60.75
2022-08-04T06:40:31.813Z,60.70
2022-08-04T06:43:06.507Z,60.67
2022-08-04T06:45:40.265Z,60.95
2022-08-04T06:48:14.284Z,60.96
2022-08-04T06:51:32.823Z,60.99
2022-08-04T06:53:38.115Z,61.10
2022-08-04T06:56:10.562Z,61.14
2022-08-04T06:58:42.185Z,61.06
2022-08-04T07:01:18.803Z,61.02
2022-08-04T07:03:50.863Z,61.11
2022-08-04T07:06:25.912Z,60.99
2022-08-04T07:08:56.996Z,61.12
2022-08-04T07:11:28.061Z,60.90
2022-08-04T07:14:10.305Z,60.85
2022-08-04T07:16:43.767Z,60.67
2022-08-04T07:19:18.632Z,60.58
2022-08-04T07:22:17.579Z,60.82
2022-08-04T07:24:41.681Z,60.47
2022-08-04T07:27:47.596Z,60.57
2022-08-04T07:30:32.264Z,60.47
2022-08-04T07:33:04.329Z,60.10
2022-08-04T07:36:06.038Z,60.06
2022-08-04T07:38:27.711Z,59.89
2022-08-04T07:40:58.579Z,59.81
2022-08-04T07:43:29.500Z,59.81
2022-08-04T07:46:00.244Z,59.76
2022-08-04T07:48:41.814Z,59.52
2022-08-04T07:51:38.809Z,59.54
2022-08-04T07:54:15.524Z,59.57
2022-08-04T07:56:46.603Z,59.14
2022-08-04T07:59:18.433Z,58.88
2022-08-04T08:01:49.595Z,59.05
2022-08-04T08:04:20.607Z,58.81
2022-08-04T08:06:50.752Z,58.51
2022-08-04T08:09:22.833Z,58.58
2022-08-04T08:12:36.518Z,58.41
2022-08-04T08:15:01.422Z,58.47
2022-08-04T08:17:32.268Z,58.27
2022-08-04T08:20:34.056Z,57.86
2022-08-04T08:23:06.185Z,57.97
2022-08-04T08:25:36.742Z,57.62
2022-08-04T08:28:23.676Z,57.60
2022-08-04T08:31:21.153Z,57.46
2022-08-04T08:34:32.190Z,57.39
2022-08-04T08:37:35.475Z,57.16
2022-08-04T08:41:14.051Z,57.03
2022-08-04T08:44:09.348Z,56.83
2022-08-04T08:47:19.113Z,56.69
2022-08-04T08:50:16.974Z,56.40
2022-08-04T08:53:24.714Z,56.33
2022-08-04T08:56:40.756Z,55.89
2022-08-04T08:59:33.831Z,55.90
2022-08-04T09:02:17.876Z,55.69
2022-08-04T09:05:16.516Z,55.45
2022-08-04T09:07:47.303Z,55.37
2022-08-04T09:10:29.593Z,55.14
2022-08-04T09:13:39.168Z,54.89
2022-08-04T09:16:19.341Z,55.00
2022-08-04T09:19:08.926Z,54.76
2022-08-04T09:22:29.943Z,54.23
2022-08-04T09:25:22.539Z,53.67
2022-08-04T09:28:09.619Z,53.51
2022-08-04T09:34:06.716Z,53.33
2022-08-04T09:36:59.227Z,53.40
2022-08-04T09:39:57.112Z,52.87
2022-08-04T09:42:44.405Z,52.90
2022-08-04T09:45:42.464Z,52.46
2022-08-04T09:48:37.660Z,52.09
2022-08-04T09:51:57.560Z,51.84
2022-08-04T09:54:54.945Z,51.87
2022-08-04T09:57:52.040Z,51.78
2022-08-04T10:00:41.390Z,51.50
2022-08-04T10:03:19.910Z,51.32
2022-08-04T10:06:06.383Z,50.94
2022-08-04T10:09:15.465Z,50.64
2022-08-04T10:12:23.720Z,50.44
2022-08-04T10:15:00.596Z,50.52
2022-08-04T10:17:43.529Z,50.30
2022-08-04T10:20:53.990Z,50.15
2022-08-04T10:23:55.213Z,49.67
2022-08-04T10:26:44.941Z,49.43
2022-08-04T10:29:51.041Z,49.52
2022-08-04T10:32:27.131Z,49.20
2022-08-04T10:35:42.365Z,49.17
2022-08-04T10:38:31.590Z,48.99
2022-08-04T10:41:33.670Z,48.75
2022-08-04T10:44:41.929Z,48.24
2022-08-04T10:47:38.641Z,48.40
2022-08-04T10:50:34.373Z,47.98
2022-08-04T10:53:32.634Z,48.03
2022-08-04T10:56:19.775Z,47.99
2022-08-04T10:59:16.839Z,47.68
2022-08-04T11:02:02.563Z,47.52
2022-08-04T11:04:43.555Z,47.35
2022-08-04T11:07:15.530Z,47.19
2022-08-04T11:09:47.592Z,46.89
2022-08-04T11:12:28.510Z,46.99
2022-08-04T11:15:09.373Z,46.95
2022-08-04T11:18:16.506Z,46.57
2022-08-04T11:21:01.877Z,46.36
2022-08-04T11:23:37.157Z,46.02
2022-08-04T11:26:26.844Z,45.93
2022-08-04T11:29:05.977Z,45.95
2022-08-04T11:31:49.763Z,45.72
2022-08-04T11:34:29.117Z,45.53
2022-08-04T11:37:17.528Z,45.50
2022-08-04T11:39:55.117Z,45.11
2022-08-04T11:42:30.852Z,45.21
2022-08-04T11:45:09.230Z,45.32
2022-08-04T11:48:03.717Z,44.95
2022-08-04T11:50:34.413Z,44.70
2022-08-04T11:53:20.084Z,44.71
2022-08-04T11:56:36.990Z,44.51
2022-08-04T11:59:16.743Z,44.03
2022-08-04T12:02:20.970Z,44.08
2022-08-04T12:05:32.396Z,43.79
2022-08-04T12:08:22.472Z,43.61
2022-08-04T12:11:35.859Z,43.76
2022-08-04T12:14:42.550Z,43.14
2022-08-04T12:18:08.375Z,42.92
2022-08-04T12:20:47.745Z,42.98
2022-08-04T12:23:26.310Z,42.82
2022-08-04T12:30:58.872Z,42.78
2022-08-04T12:33:17.798Z,42.40
2022-08-04T12:36:29.742Z,42.44
2022-08-04T12:39:17.080Z,42.23
2022-08-04T12:42:03.164Z,41.91
2022-08-04T12:44:39.001Z,41.94
2022-08-04T12:47:27.478Z,41.83
2022-08-04T12:53:55.251Z,41.76
2022-08-04T12:56:36.963Z,41.38
2022-08-04T12:59:14.875Z,41.47
2022-08-04T13:02:07.303Z,41.17
2022-08-04T13:04:51.528Z,41.14
2022-08-04T13:07:29.457Z,41.15
2022-08-04T13:10:02.804Z,41.04
2022-08-04T13:12:35.189Z,40.95
2022-08-04T13:15:47.307Z,40.77
2022-08-04T13:18:29.308Z,40.81
2022-08-04T13:21:20.894Z,40.47
2022-08-04T13:24:10.489Z,40.29
2022-08-04T13:27:03.650Z,40.22
2022-08-04T13:29:58.948Z,40.17
2022-08-04T13:32:32.527Z,40.09
2022-08-04T13:35:12.423Z,39.90
2022-08-04T13:37:44.461Z,40.04
2022-08-04T13:40:17.488Z,40.00
2022-08-04T13:42:49.781Z,39.89
2022-08-04T13:45:25.074Z,39.81
2022-08-04T13:48:20.212Z,39.71
2022-08-04T13:51:05.477Z,39.85
2022-08-04T13:53:37.696Z,39.74
2022-08-04T13:56:11.818Z,39.67
2022-08-04T13:58:47.227Z,39.50
2022-08-04T14:01:21.154Z,39.55
2022-08-04T14:04:32.090Z,39.64
2022-08-04T14:07:21.013Z,39.35
2022-08-04T14:10:03.339Z,39.35
2022-08-04T14:12:38.935Z,39.48
2022-08-04T14:16:02.443Z,39.31
2022-08-04T14:18:34.899Z,39.44
2022-08-04T14:21:19.305Z,39.39
2022-08-04T14:23:59.463Z,39.50
2022-08-04T14:26:37.429Z,39.30
2022-08-04T14:29:27.480Z,39.27
2022-08-04T14:32:11.511Z,39.09
2022-08-04T14:34:47.062Z,39.15
2022-08-04T14:37:20.856Z,39.10
2022-08-04T14:40:07.935Z,39.04
2022-08-04T14:42:44.650Z,39.05
2022-08-04T14:45:53.883Z,39.10
2022-08-04T14:48:25.818Z,39.12
2022-08-04T14:50:56.614Z,38.98
2022-08-04T14:53:29.905Z,38.99
2022-08-04T14:56:02.857Z,39.15
2022-08-04T14:58:39.200Z,39.17
2022-08-04T15:01:16.802Z,39.08
2022-08-04T15:03:50.782Z,39.16
2022-08-04T15:06:27.162Z,39.26
2022-08-04T15:09:05.562Z,39.11
2022-08-04T15:11:53.586Z,39.09
2022-08-04T15:14:50.546Z,39.06
2022-08-04T15:17:47.547Z,39.29
2022-08-04T15:20:44.633Z,39.16
2022-08-04T15:23:42.459Z,39.25
2022-08-04T15:26:39.473Z,39.17
2022-08-04T15:29:59.223Z,39.04
2022-08-04T15:32:54.374Z,39.10
2022-08-04T15:35:38.786Z,39.15
2022-08-04T15:43:55.532Z,39.16
2022-08-04T15:47:10.655Z,39.04
2022-08-04T15:56:23.892Z,39.22
2022-08-04T15:59:27.036Z,39.18
2022-08-04T16:02:38.681Z,39.12
2022-08-04T16:05:18.933Z,39.15
2022-08-04T16:08:05.132Z,39.49
2022-08-04T16:10:51.513Z,39.33
2022-08-04T16:13:27.505Z,39.15
2022-08-04T16:16:03.204Z,39.30
2022-08-04T16:18:37.831Z,39.26
2022-08-04T16:21:56.111Z,39.19
2022-08-04T16:24:57.912Z,39.19
2022-08-04T16:27:50.411Z,39.52
2022-08-04T16:30:35.664Z,39.56
2022-08-04T16:33:21.745Z,39.23
2022-08-04T16:36:23.904Z,39.39
2022-08-04T16:39:19.642Z,39.32
2022-08-04T16:42:44.853Z,39.44
2022-08-04T16:45:19.427Z,39.30
2022-08-04T16:47:56.045Z,39.31
2022-08-04T16:51:04.535Z,39.29
2022-08-04T16:54:04.769Z,39.55
2022-08-04T16:57:07.533Z,39.65
2022-08-04T17:00:22.595Z,39.48
2022-08-04T17:03:24.417Z,39.47
2022-08-04T17:06:20.183Z,39.46
2022-08-04T17:09:17.626Z,39.51
2022-08-04T17:12:14.504Z,40.09
2022-08-04T17:15:00.177Z,39.88
2022-08-04T17:18:04.013Z,40.24
2022-08-04T17:21:36.234Z,40.47
2022-08-04T17:24:19.021Z,40.52
2022-08-04T17:28:19.304Z,40.41
2022-08-04T17:30:52.579Z,41.15
2022-08-04T17:33:54.910Z,41.18
2022-08-04T17:36:37.421Z,41.18
2022-08-04T17:39:24.811Z,41.27
2022-08-04T17:41:59.814Z,41.36
2022-08-04T17:44:44.466Z,41.40
2022-08-04T17:47:38.118Z,41.47
2022-08-04T17:50:55.236Z,41.51
2022-08-04T17:54:01.643Z,41.60
2022-08-04T17:56:52.155Z,41.73
2022-08-04T17:59:55.589Z,41.88
2022-08-04T18:02:32.413Z,42.10
2022-08-04T18:05:11.392Z,42.15
2022-08-04T18:08:39.724Z,42.02
2022-08-04T18:10:56.134Z,42.22
2022-08-04T18:13:28.699Z,42.43
2022-08-04T18:16:30.565Z,42.47
2022-08-04T18:19:24.394Z,42.57
2022-08-04T18:25:50.440Z,42.83
2022-08-04T18:28:45.506Z,43.02
2022-08-04T18:31:39.972Z,43.15
2022-08-04T18:34:29.356Z,43.36
2022-08-04T18:42:14.465Z,43.68
2022-08-04T18:45:05.610Z,43.63
2022-08-04T18:47:58.867Z,44.00
2022-08-04T18:54:32.224Z,44.11
2022-08-04T18:57:32.331Z,44.32
2022-08-04T19:00:25.446Z,44.17
2022-08-04T19:03:22.877Z,44.29
2022-08-04T19:06:08.545Z,44.27
2022-08-04T19:09:00.513Z,44.41
2022-08-04T19:11:54.418Z,44.47
2022-08-04T19:20:51.967Z,44.94
2022-08-04T19:32:13.970Z,45.41
2022-08-04T19:35:57.808Z,45.57
2022-08-04T19:38:44.486Z,45.69
2022-08-04T19:41:19.503Z,45.73
2022-08-04T19:44:24.151Z,45.86
2022-08-04T19:47:30.792Z,45.86
2022-08-04T19:50:16.907Z,46.14
2022-08-04T19:52:52.462Z,46.25
2022-08-04T19:55:37.561Z,46.22
2022-08-04T19:58:16.603Z,46.35
2022-08-04T20:00:52.890Z,46.25
2022-08-04T20:04:10.469Z,46.61
2022-08-04T20:06:54.315Z,46.73
2022-08-04T20:09:37.457Z,46.82
2022-08-04T20:12:35.834Z,46.87
2022-08-04T20:15:21.816Z,46.88
2022-08-04T20:18:07.697Z,47.13
2022-08-04T20:21:54.443Z,47.21
2022-08-04T20:24:41.459Z,47.18
2022-08-04T20:27:51.838Z,47.36
2022-08-04T20:30:48.142Z,47.53
2022-08-04T20:33:40.482Z,47.36
2022-08-04T20:36:49.873Z,47.37
2022-08-04T20:39:53.700Z,47.67
2022-08-04T20:42:47.305Z,47.80
2022-08-04T20:45:56.309Z,47.80
2022-08-04T20:48:56.306Z,47.82
2022-08-04T20:51:52.285Z,47.93
2022-08-04T20:54:35.206Z,47.90
2022-08-04T20:57:12.252Z,48.25
2022-08-04T21:00:14.404Z,48.11
2022-08-04T21:03:11.137Z,48.10
2022-08-04T21:06:08.112Z,48.37
2022-08-04T21:09:15.381Z,48.45
2022-08-04T21:15:57.873Z,48.47
2022-08-04T21:18:47.187Z,48.47
2022-08-04T21:21:46.103Z,48.56
2022-08-04T21:24:50.490Z,48.81
2022-08-04T21:27:48.292Z,48.86
2022-08-04T21:30:54.103Z,49.00
2022-08-04T21:33:53.182Z,48.86
2022-08-04T21:36:49.175Z,48.96
2022-08-04T21:39:59.052Z,49.11
2022-08-04T21:42:53.649Z,49.24
2022-08-04T21:45:41.035Z,49.48
2022-08-04T21:48:48.601Z,49.50
2022-08-04T21:51:59.972Z,49.53
2022-08-04T21:54:58.102Z,49.63
2022-08-04T21:57:58.727Z,49.66
2022-08-04T22:00:56.013Z,49.60
2022-08-04T22:03:57.087Z,49.88
2022-08-04T22:06:55.096Z,49.94
2022-08-04T22:10:02.487Z,49.92
2022-08-04T22:13:00.280Z,49.99
2022-08-04T22:16:05.730Z,50.10
2022-08-04T22:19:03.249Z,50.16
2022-08-04T22:22:05.148Z,50.28
2022-08-04T22:25:12.313Z,50.29
2022-08-04T22:28:10.941Z,50.38
2022-08-04T22:31:23.167Z,50.38
2022-08-04T22:34:20.893Z,50.48
2022-08-04T22:37:35.985Z,50.75
2022-08-04T22:40:40.275Z,50.70
2022-08-04T22:43:37.886Z,50.73
2022-08-04T22:46:35.035Z,50.96
2022-08-04T22:49:32.646Z,50.75
2022-08-04T22:52:31.972Z,50.99
2022-08-04T22:55:57.481Z,50.84
2022-08-04T22:58:51.107Z,51.01
2022-08-04T23:01:58.946Z,51.11
2022-08-04T23:04:57.948Z,51.22
2022-08-04T23:07:56.138Z,51.37
2022-08-04T23:10:57.940Z,51.40
2022-08-04T23:13:55.066Z,51.26
2022-08-04T23:16:53.359Z,51.49
2022-08-04T23:19:58.160Z,51.64
2022-08-04T23:22:57.210Z,51.62
2022-08-04T23:26:07.500Z,51.83
2022-08-04T23:29:05.867Z,51.89
2022-08-04T23:32:03.012Z,51.79
2022-08-04T23:35:00.063Z,51.88
2022-08-04T23:38:00.078Z,51.86
2022-08-04T23:41:15.716Z,51.95
2022-08-04T23:44:17.608Z,52.08
2022-08-04T23:48:15.709Z,52.01
2022-08-04T23:50:40.303Z,52.02
2022-08-04T23:54:01.584Z,51.83
2022-08-04T23:57:08.798Z,52.10
